sensor_id;sensor_type;location;lat;lon;timestamp;P1;durP1;ratioP1;P2;durP2;ratioP2
53903;SDS011;39812;52.430;16.936;2023-06-10T00:00:37;10.90;;;6.18;;
53903;SDS011;39812;52.430;16.936;2023-06-10T00:03:03;9.98;;;5.97;;
53903;SDS011;39812;52.430;16.936;2023-06-10T00:05:28;9.32;;;6.35;;
53903;SDS011;39812;52.430;16.936;2023-06-10T00:07:57;9.73;;;5.82;;
53903;SDS011;39812;52.430;16.936;2023-06-10T00:10:23;7.72;;;6.22;;
53903;SDS011;39812;52.430;16.936;2023-06-10T00:12:49;10.02;;;6.75;;
53903;SDS011;39812;52.430;16.936;2023-06-10T00:15:16;10.50;;;6.15;;
53903;SDS011;39812;52.430;16.936;2023-06-10T00:17:42;9.10;;;6.55;;
53903;SDS011;39812;52.430;16.936;2023-06-10T00:20:08;8.98;;;6.28;;
53903;SDS011;39812;52.430;16.936;2023-06-10T00:22:37;6.63;;;5.70;;
53903;SDS011;39812;52.430;16.936;2023-06-10T00:25:07;11.07;;;6.95;;
53903;SDS011;39812;52.430;16.936;2023-06-10T00:27:34;8.57;;;6.45;;
53903;SDS011;39812;52.430;16.936;2023-06-10T00:30:03;9.77;;;6.82;;
53903;SDS011;39812;52.430;16.936;2023-06-10T00:32:32;10.43;;;6.22;;
53903;SDS011;39812;52.430;16.936;2023-06-10T00:34:58;8.82;;;6.30;;
53903;SDS011;39812;52.430;16.936;2023-06-10T00:37:24;9.60;;;6.45;;
53903;SDS011;39812;52.430;16.936;2023-06-10T00:39:49;9.32;;;6.22;;
53903;SDS011;39812;52.430;16.936;2023-06-10T00:42:15;10.40;;;6.22;;
53903;SDS011;39812;52.430;16.936;2023-06-10T00:44:41;10.55;;;6.13;;
53903;SDS011;39812;52.430;16.936;2023-06-10T00:47:06;7.93;;;6.03;;
53903;SDS011;39812;52.430;16.936;2023-06-10T00:49:33;7.15;;;5.47;;
53903;SDS011;39812;52.430;16.936;2023-06-10T00:51:58;8.98;;;5.90;;
53903;SDS011;39812;52.430;16.936;2023-06-10T00:54:24;8.02;;;6.10;;
53903;SDS011;39812;52.430;16.936;2023-06-10T00:56:51;10.38;;;6.13;;
53903;SDS011;39812;52.430;16.936;2023-06-10T00:59:17;10.07;;;5.60;;
53903;SDS011;39812;52.430;16.936;2023-06-10T01:01:43;7.13;;;5.60;;
53903;SDS011;39812;52.430;16.936;2023-06-10T01:04:12;7.65;;;5.53;;
53903;SDS011;39812;52.430;16.936;2023-06-10T01:15:13;11.40;;;5.78;;
53903;SDS011;39812;52.430;16.936;2023-06-10T01:17:53;11.13;;;6.10;;
53903;SDS011;39812;52.430;16.936;2023-06-10T01:20:27;9.93;;;5.85;;
53903;SDS011;39812;52.430;16.936;2023-06-10T01:22:56;11.75;;;5.72;;
53903;SDS011;39812;52.430;16.936;2023-06-10T01:25:23;11.05;;;6.03;;
53903;SDS011;39812;52.430;16.936;2023-06-10T01:28:02;8.07;;;5.38;;
53903;SDS011;39812;52.430;16.936;2023-06-10T01:30:37;6.25;;;5.50;;
53903;SDS011;39812;52.430;16.936;2023-06-10T01:33:14;8.75;;;5.88;;
53903;SDS011;39812;52.430;16.936;2023-06-10T01:35:46;10.50;;;6.22;;
53903;SDS011;39812;52.430;16.936;2023-06-10T01:38:13;10.07;;;5.88;;
53903;SDS011;39812;52.430;16.936;2023-06-10T01:40:41;10.75;;;6.13;;
53903;SDS011;39812;52.430;16.936;2023-06-10T01:43:07;12.52;;;6.05;;
53903;SDS011;39812;52.430;16.936;2023-06-10T01:45:32;9.45;;;5.20;;
53903;SDS011;39812;52.430;16.936;2023-06-10T01:47:58;10.02;;;5.47;;
53903;SDS011;39812;52.430;16.936;2023-06-10T01:50:24;12.50;;;5.40;;
53903;SDS011;39812;52.430;16.936;2023-06-10T01:52:49;12.43;;;6.00;;
53903;SDS011;39812;52.430;16.936;2023-06-10T01:55:15;10.07;;;6.03;;
53903;SDS011;39812;52.430;16.936;2023-06-10T01:57:41;10.35;;;5.57;;
53903;SDS011;39812;52.430;16.936;2023-06-10T02:00:06;8.80;;;5.40;;
53903;SDS011;39812;52.430;16.936;2023-06-10T02:02:33;7.93;;;5.63;;
53903;SDS011;39812;52.430;16.936;2023-06-10T02:04:59;7.15;;;4.93;;
53903;SDS011;39812;52.430;16.936;2023-06-10T02:07:25;9.30;;;5.40;;
53903;SDS011;39812;52.430;16.936;2023-06-10T02:09:50;7.75;;;5.30;;
53903;SDS011;39812;52.430;16.936;2023-06-10T02:12:16;10.82;;;5.47;;
53903;SDS011;39812;52.430;16.936;2023-06-10T02:14:42;9.40;;;5.53;;
53903;SDS011;39812;52.430;16.936;2023-06-10T02:17:07;9.70;;;5.85;;
53903;SDS011;39812;52.430;16.936;2023-06-10T02:19:37;6.97;;;5.53;;
53903;SDS011;39812;52.430;16.936;2023-06-10T02:22:07;7.93;;;5.03;;
53903;SDS011;39812;52.430;16.936;2023-06-10T02:24:33;8.32;;;5.47;;
53903;SDS011;39812;52.430;16.936;2023-06-10T02:27:00;9.02;;;5.50;;
53903;SDS011;39812;52.430;16.936;2023-06-10T02:29:27;8.15;;;5.32;;
53903;SDS011;39812;52.430;16.936;2023-06-10T02:31:52;7.57;;;5.38;;
53903;SDS011;39812;52.430;16.936;2023-06-10T02:34:18;10.27;;;5.68;;
53903;SDS011;39812;52.430;16.936;2023-06-10T02:36:44;8.63;;;5.80;;
53903;SDS011;39812;52.430;16.936;2023-06-10T02:39:10;6.90;;;4.72;;
53903;SDS011;39812;52.430;16.936;2023-06-10T02:41:35;8.70;;;5.80;;
53903;SDS011;39812;52.430;16.936;2023-06-10T02:44:01;10.18;;;4.90;;
53903;SDS011;39812;52.430;16.936;2023-06-10T02:46:27;8.60;;;5.15;;
53903;SDS011;39812;52.430;16.936;2023-06-10T02:48:54;8.35;;;5.60;;
53903;SDS011;39812;52.430;16.936;2023-06-10T02:51:19;8.18;;;5.40;;
53903;SDS011;39812;52.430;16.936;2023-06-10T02:53:46;10.15;;;5.30;;
53903;SDS011;39812;52.430;16.936;2023-06-10T02:56:11;8.15;;;5.05;;
53903;SDS011;39812;52.430;16.936;2023-06-10T02:58:37;7.57;;;5.28;;
53903;SDS011;39812;52.430;16.936;2023-06-10T03:01:03;8.00;;;4.68;;
53903;SDS011;39812;52.430;16.936;2023-06-10T03:03:28;10.02;;;4.70;;
53903;SDS011;39812;52.430;16.936;2023-06-10T03:05:55;7.90;;;5.22;;
53903;SDS011;39812;52.430;16.936;2023-06-10T03:08:21;8.18;;;5.10;;
53903;SDS011;39812;52.430;16.936;2023-06-10T03:10:47;6.60;;;5.20;;
53903;SDS011;39812;52.430;16.936;2023-06-10T03:13:12;6.88;;;5.03;;
53903;SDS011;39812;52.430;16.936;2023-06-10T03:15:39;9.55;;;5.22;;
53903;SDS011;39812;52.430;16.936;2023-06-10T03:18:05;8.57;;;5.40;;
53903;SDS011;39812;52.430;16.936;2023-06-10T03:20:32;8.77;;;5.18;;
53903;SDS011;39812;52.430;16.936;2023-06-10T03:23:01;7.78;;;4.90;;
53903;SDS011;39812;52.430;16.936;2023-06-10T03:25:27;7.97;;;5.20;;
53903;SDS011;39812;52.430;16.936;2023-06-10T03:27:53;10.40;;;5.13;;
53903;SDS011;39812;52.430;16.936;2023-06-10T03:30:19;7.53;;;5.43;;
53903;SDS011;39812;52.430;16.936;2023-06-10T03:32:45;9.10;;;5.18;;
53903;SDS011;39812;52.430;16.936;2023-06-10T03:35:10;8.43;;;5.05;;
53903;SDS011;39812;52.430;16.936;2023-06-10T03:37:36;8.32;;;4.85;;
53903;SDS011;39812;52.430;16.936;2023-06-10T03:40:02;6.28;;;4.40;;
53903;SDS011;39812;52.430;16.936;2023-06-10T03:42:28;7.03;;;5.22;;
53903;SDS011;39812;52.430;16.936;2023-06-10T03:44:54;10.48;;;5.10;;
53903;SDS011;39812;52.430;16.936;2023-06-10T03:47:21;7.63;;;4.47;;
53903;SDS011;39812;52.430;16.936;2023-06-10T03:49:46;7.88;;;5.40;;
53903;SDS011;39812;52.430;16.936;2023-06-10T03:52:12;6.93;;;4.55;;
53903;SDS011;39812;52.430;16.936;2023-06-10T03:54:38;7.30;;;4.82;;
53903;SDS011;39812;52.430;16.936;2023-06-10T03:57:03;7.63;;;4.55;;
53903;SDS011;39812;52.430;16.936;2023-06-10T03:59:30;9.35;;;5.13;;
53903;SDS011;39812;52.430;16.936;2023-06-10T04:01:56;6.50;;;4.50;;
53903;SDS011;39812;52.430;16.936;2023-06-10T04:04:22;7.45;;;5.35;;
53903;SDS011;39812;52.430;16.936;2023-06-10T04:06:48;12.40;;;5.05;;
53903;SDS011;39812;52.430;16.936;2023-06-10T04:09:14;10.70;;;4.68;;
53903;SDS011;39812;52.430;16.936;2023-06-10T04:11:41;8.23;;;5.07;;
53903;SDS011;39812;52.430;16.936;2023-06-10T04:14:07;8.35;;;4.57;;
53903;SDS011;39812;52.430;16.936;2023-06-10T04:16:33;10.50;;;4.97;;
53903;SDS011;39812;52.430;16.936;2023-06-10T04:18:59;8.93;;;4.93;;
53903;SDS011;39812;52.430;16.936;2023-06-10T04:21:25;10.32;;;4.80;;
53903;SDS011;39812;52.430;16.936;2023-06-10T04:23:51;10.02;;;5.20;;
53903;SDS011;39812;52.430;16.936;2023-06-10T04:26:17;12.52;;;5.80;;
53903;SDS011;39812;52.430;16.936;2023-06-10T04:28:43;11.15;;;5.07;;
53903;SDS011;39812;52.430;16.936;2023-06-10T04:31:09;8.15;;;5.00;;
53903;SDS011;39812;52.430;16.936;2023-06-10T04:33:34;11.70;;;4.97;;
53903;SDS011;39812;52.430;16.936;2023-06-10T04:36:01;7.65;;;5.00;;
53903;SDS011;39812;52.430;16.936;2023-06-10T04:38:26;8.80;;;4.72;;
53903;SDS011;39812;52.430;16.936;2023-06-10T04:40:52;13.13;;;5.32;;
53903;SDS011;39812;52.430;16.936;2023-06-10T04:43:18;10.35;;;5.10;;
53903;SDS011;39812;52.430;16.936;2023-06-10T04:45:44;9.50;;;4.55;;
53903;SDS011;39812;52.430;16.936;2023-06-10T04:48:09;9.70;;;4.57;;
53903;SDS011;39812;52.430;16.936;2023-06-10T04:50:36;6.38;;;4.32;;
53903;SDS011;39812;52.430;16.936;2023-06-10T04:53:02;7.57;;;4.60;;
53903;SDS011;39812;52.430;16.936;2023-06-10T04:55:27;7.47;;;4.95;;
53903;SDS011;39812;52.430;16.936;2023-06-10T04:57:53;10.95;;;5.00;;
53903;SDS011;39812;52.430;16.936;2023-06-10T05:00:19;9.52;;;4.40;;
53903;SDS011;39812;52.430;16.936;2023-06-10T05:02:45;8.68;;;4.63;;
53903;SDS011;39812;52.430;16.936;2023-06-10T05:05:15;11.50;;;4.30;;
53903;SDS011;39812;52.430;16.936;2023-06-10T05:07:41;7.88;;;4.88;;
53903;SDS011;39812;52.430;16.936;2023-06-10T05:10:07;9.00;;;4.20;;
53903;SDS011;39812;52.430;16.936;2023-06-10T05:12:33;8.52;;;4.50;;
53903;SDS011;39812;52.430;16.936;2023-06-10T05:14:59;8.00;;;4.35;;
53903;SDS011;39812;52.430;16.936;2023-06-10T05:17:24;9.35;;;4.00;;
53903;SDS011;39812;52.430;16.936;2023-06-10T05:19:50;8.73;;;3.85;;
53903;SDS011;39812;52.430;16.936;2023-06-10T05:22:16;6.75;;;4.00;;
53903;SDS011;39812;52.430;16.936;2023-06-10T05:24:43;8.35;;;3.92;;
53903;SDS011;39812;52.430;16.936;2023-06-10T05:27:09;7.43;;;3.95;;
53903;SDS011;39812;52.430;16.936;2023-06-10T05:29:35;8.07;;;4.15;;
53903;SDS011;39812;52.430;16.936;2023-06-10T05:32:01;7.03;;;4.13;;
53903;SDS011;39812;52.430;16.936;2023-06-10T05:34:31;6.78;;;4.32;;
53903;SDS011;39812;52.430;16.936;2023-06-10T05:36:57;8.90;;;3.80;;
53903;SDS011;39812;52.430;16.936;2023-06-10T05:39:23;6.85;;;3.58;;
53903;SDS011;39812;52.430;16.936;2023-06-10T05:41:48;6.82;;;3.80;;
53903;SDS011;39812;52.430;16.936;2023-06-10T05:44:14;11.55;;;3.83;;
53903;SDS011;39812;52.430;16.936;2023-06-10T05:46:40;8.05;;;3.72;;
53903;SDS011;39812;52.430;16.936;2023-06-10T05:49:05;8.25;;;3.60;;
53903;SDS011;39812;52.430;16.936;2023-06-10T05:51:31;10.45;;;4.15;;
53903;SDS011;39812;52.430;16.936;2023-06-10T05:53:57;7.30;;;3.95;;
53903;SDS011;39812;52.430;16.936;2023-06-10T05:56:22;9.82;;;4.05;;
53903;SDS011;39812;52.430;16.936;2023-06-10T05:58:48;8.85;;;3.83;;
53903;SDS011;39812;52.430;16.936;2023-06-10T06:01:14;8.57;;;4.32;;
53903;SDS011;39812;52.430;16.936;2023-06-10T06:03:40;12.48;;;3.90;;
53903;SDS011;39812;52.430;16.936;2023-06-10T06:06:06;6.20;;;3.40;;
53903;SDS011;39812;52.430;16.936;2023-06-10T06:08:31;8.65;;;3.75;;
53903;SDS011;39812;52.430;16.936;2023-06-10T06:10:57;6.05;;;3.75;;
53903;SDS011;39812;52.430;16.936;2023-06-10T06:13:23;7.32;;;3.70;;
53903;SDS011;39812;52.430;16.936;2023-06-10T06:15:49;9.38;;;4.20;;
53903;SDS011;39812;52.430;16.936;2023-06-10T06:18:15;8.80;;;4.38;;
53903;SDS011;39812;52.430;16.936;2023-06-10T06:20:41;7.88;;;3.55;;
53903;SDS011;39812;52.430;16.936;2023-06-10T06:23:06;8.00;;;4.15;;
53903;SDS011;39812;52.430;16.936;2023-06-10T06:25:34;6.88;;;3.90;;
53903;SDS011;39812;52.430;16.936;2023-06-10T06:28:01;7.25;;;4.22;;
53903;SDS011;39812;52.430;16.936;2023-06-10T06:30:27;7.90;;;4.00;;
53903;SDS011;39812;52.430;16.936;2023-06-10T06:32:52;6.88;;;4.05;;
53903;SDS011;39812;52.430;16.936;2023-06-10T06:35:18;9.88;;;4.43;;
53903;SDS011;39812;52.430;16.936;2023-06-10T06:37:44;7.95;;;4.00;;
53903;SDS011;39812;52.430;16.936;2023-06-10T06:40:09;8.32;;;3.78;;
53903;SDS011;39812;52.430;16.936;2023-06-10T06:42:35;5.60;;;3.60;;
53903;SDS011;39812;52.430;16.936;2023-06-10T06:45:01;7.07;;;3.55;;
53903;SDS011;39812;52.430;16.936;2023-06-10T06:47:27;7.72;;;3.88;;
53903;SDS011;39812;52.430;16.936;2023-06-10T06:49:53;5.88;;;3.60;;
53903;SDS011;39812;52.430;16.936;2023-06-10T06:52:18;7.00;;;3.78;;
53903;SDS011;39812;52.430;16.936;2023-06-10T06:54:44;10.20;;;4.32;;
53903;SDS011;39812;52.430;16.936;2023-06-10T06:57:10;11.13;;;4.15;;
53903;SDS011;39812;52.430;16.936;2023-06-10T06:59:35;8.07;;;3.58;;
53903;SDS011;39812;52.430;16.936;2023-06-10T07:02:02;7.43;;;4.00;;
53903;SDS011;39812;52.430;16.936;2023-06-10T07:04:28;7.45;;;3.95;;
53903;SDS011;39812;52.430;16.936;2023-06-10T07:06:54;5.75;;;3.75;;
53903;SDS011;39812;52.430;16.936;2023-06-10T07:09:19;7.47;;;3.50;;
53903;SDS011;39812;52.430;16.936;2023-06-10T07:11:45;8.00;;;3.97;;
53903;SDS011;39812;52.430;16.936;2023-06-10T07:14:10;6.10;;;3.50;;
53903;SDS011;39812;52.430;16.936;2023-06-10T07:16:36;8.55;;;4.20;;
53903;SDS011;39812;52.430;16.936;2023-06-10T07:19:01;8.23;;;4.75;;
53903;SDS011;39812;52.430;16.936;2023-06-10T07:21:27;6.55;;;3.90;;
53903;SDS011;39812;52.430;16.936;2023-06-10T07:23:54;7.85;;;3.70;;
53903;SDS011;39812;52.430;16.936;2023-06-10T07:26:21;7.15;;;3.70;;
53903;SDS011;39812;52.430;16.936;2023-06-10T07:28:47;8.35;;;4.15;;
53903;SDS011;39812;52.430;16.936;2023-06-10T07:31:13;6.30;;;3.72;;
53903;SDS011;39812;52.430;16.936;2023-06-10T07:33:39;6.75;;;3.78;;
53903;SDS011;39812;52.430;16.936;2023-06-10T07:36:05;6.05;;;4.10;;
53903;SDS011;39812;52.430;16.936;2023-06-10T07:38:31;7.13;;;3.83;;
53903;SDS011;39812;52.430;16.936;2023-06-10T07:40:56;8.57;;;4.10;;
53903;SDS011;39812;52.430;16.936;2023-06-10T07:43:22;6.13;;;3.70;;
53903;SDS011;39812;52.430;16.936;2023-06-10T07:45:48;7.28;;;3.85;;
53903;SDS011;39812;52.430;16.936;2023-06-10T07:48:14;7.57;;;3.65;;
53903;SDS011;39812;52.430;16.936;2023-06-10T07:50:40;8.10;;;3.55;;
53903;SDS011;39812;52.430;16.936;2023-06-10T07:53:05;7.05;;;3.55;;
53903;SDS011;39812;52.430;16.936;2023-06-10T07:55:31;6.05;;;3.63;;
53903;SDS011;39812;52.430;16.936;2023-06-10T07:57:57;8.23;;;3.53;;
53903;SDS011;39812;52.430;16.936;2023-06-10T08:00:23;7.95;;;3.85;;
53903;SDS011;39812;52.430;16.936;2023-06-10T08:02:49;7.97;;;3.53;;
53903;SDS011;39812;52.430;16.936;2023-06-10T08:05:15;7.90;;;3.63;;
53903;SDS011;39812;52.430;16.936;2023-06-10T08:07:41;6.18;;;3.47;;
53903;SDS011;39812;52.430;16.936;2023-06-10T08:10:07;8.10;;;3.25;;
53903;SDS011;39812;52.430;16.936;2023-06-10T08:12:34;7.60;;;3.78;;
53903;SDS011;39812;52.430;16.936;2023-06-10T08:15:00;8.23;;;3.58;;
53903;SDS011;39812;52.430;16.936;2023-06-10T08:17:28;7.07;;;3.33;;
53903;SDS011;39812;52.430;16.936;2023-06-10T08:19:55;8.73;;;3.55;;
53903;SDS011;39812;52.430;16.936;2023-06-10T08:22:20;8.63;;;3.60;;
53903;SDS011;39812;52.430;16.936;2023-06-10T08:24:46;5.20;;;3.25;;
53903;SDS011;39812;52.430;16.936;2023-06-10T08:27:12;10.48;;;3.63;;
53903;SDS011;39812;52.430;16.936;2023-06-10T08:29:38;5.47;;;2.83;;
53903;SDS011;39812;52.430;16.936;2023-06-10T08:32:04;11.05;;;3.00;;
53903;SDS011;39812;52.430;16.936;2023-06-10T08:34:32;5.80;;;3.15;;
53903;SDS011;39812;52.430;16.936;2023-06-10T08:36:59;8.20;;;3.05;;
53903;SDS011;39812;52.430;16.936;2023-06-10T08:39:25;5.63;;;2.97;;
53903;SDS011;39812;52.430;16.936;2023-06-10T08:44:31;7.40;;;3.22;;
53903;SDS011;39812;52.430;16.936;2023-06-10T08:47:01;9.40;;;3.30;;
53903;SDS011;39812;52.430;16.936;2023-06-10T08:49:38;5.45;;;3.33;;
53903;SDS011;39812;52.430;16.936;2023-06-10T08:52:11;6.97;;;3.13;;
53903;SDS011;39812;52.430;16.936;2023-06-10T08:54:46;5.75;;;2.85;;
53903;SDS011;39812;52.430;16.936;2023-06-10T08:57:19;7.15;;;3.15;;
53903;SDS011;39812;52.430;16.936;2023-06-10T08:59:46;7.30;;;3.22;;
53903;SDS011;39812;52.430;16.936;2023-06-10T09:02:13;5.07;;;3.38;;
53903;SDS011;39812;52.430;16.936;2023-06-10T09:04:40;7.68;;;2.80;;
53903;SDS011;39812;52.430;16.936;2023-06-10T09:07:08;5.78;;;2.83;;
53903;SDS011;39812;52.430;16.936;2023-06-10T09:09:35;5.45;;;3.00;;
53903;SDS011;39812;52.430;16.936;2023-06-10T09:12:02;8.00;;;3.15;;
53903;SDS011;39812;52.430;16.936;2023-06-10T09:14:28;4.88;;;2.80;;
53903;SDS011;39812;52.430;16.936;2023-06-10T09:16:54;5.95;;;3.17;;
53903;SDS011;39812;52.430;16.936;2023-06-10T09:19:22;6.43;;;3.05;;
53903;SDS011;39812;52.430;16.936;2023-06-10T09:21:50;8.95;;;3.13;;
53903;SDS011;39812;52.430;16.936;2023-06-10T09:24:15;5.25;;;3.05;;
53903;SDS011;39812;52.430;16.936;2023-06-10T09:26:41;8.57;;;3.25;;
53903;SDS011;39812;52.430;16.936;2023-06-10T09:29:08;6.80;;;3.47;;
53903;SDS011;39812;52.430;16.936;2023-06-10T09:31:36;5.07;;;2.83;;
53903;SDS011;39812;52.430;16.936;2023-06-10T09:36:33;4.45;;;2.88;;
53903;SDS011;39812;52.430;16.936;2023-06-10T09:38:59;5.60;;;3.00;;
53903;SDS011;39812;52.430;16.936;2023-06-10T09:41:34;6.80;;;3.20;;
53903;SDS011;39812;52.430;16.936;2023-06-10T09:44:01;6.32;;;3.45;;
53903;SDS011;39812;52.430;16.936;2023-06-10T09:46:30;3.78;;;2.92;;
53903;SDS011;39812;52.430;16.936;2023-06-10T09:48:57;7.65;;;3.33;;
53903;SDS011;39812;52.430;16.936;2023-06-10T09:51:23;6.55;;;3.42;;
53903;SDS011;39812;52.430;16.936;2023-06-10T09:53:50;7.40;;;3.40;;
53903;SDS011;39812;52.430;16.936;2023-06-10T09:56:16;6.88;;;3.22;;
53903;SDS011;39812;52.430;16.936;2023-06-10T09:58:44;7.15;;;3.60;;
53903;SDS011;39812;52.430;16.936;2023-06-10T10:01:12;7.57;;;3.15;;
53903;SDS011;39812;52.430;16.936;2023-06-10T10:03:51;6.60;;;2.92;;
53903;SDS011;39812;52.430;16.936;2023-06-10T10:06:18;8.70;;;3.28;;
53903;SDS011;39812;52.430;16.936;2023-06-10T10:08:46;7.30;;;2.95;;
53903;SDS011;39812;52.430;16.936;2023-06-10T10:11:13;4.68;;;3.15;;
53903;SDS011;39812;52.430;16.936;2023-06-10T10:13:41;5.22;;;2.97;;
53903;SDS011;39812;52.430;16.936;2023-06-10T10:16:11;6.63;;;3.45;;
53903;SDS011;39812;52.430;16.936;2023-06-10T10:18:41;5.13;;;2.90;;
53903;SDS011;39812;52.430;16.936;2023-06-10T10:21:22;7.75;;;3.08;;
53903;SDS011;39812;52.430;16.936;2023-06-10T10:26:35;5.40;;;3.15;;
53903;SDS011;39812;52.430;16.936;2023-06-10T10:31:36;5.10;;;3.08;;
53903;SDS011;39812;52.430;16.936;2023-06-10T10:34:07;4.72;;;3.05;;
53903;SDS011;39812;52.430;16.936;2023-06-10T10:36:34;8.50;;;3.00;;
53903;SDS011;39812;52.430;16.936;2023-06-10T10:39:02;5.72;;;2.80;;
53903;SDS011;39812;52.430;16.936;2023-06-10T10:41:29;6.85;;;3.17;;
53903;SDS011;39812;52.430;16.936;2023-06-10T10:43:57;4.93;;;3.20;;
53903;SDS011;39812;52.430;16.936;2023-06-10T10:46:24;5.88;;;2.88;;
53903;SDS011;39812;52.430;16.936;2023-06-10T10:48:53;7.18;;;3.28;;
53903;SDS011;39812;52.430;16.936;2023-06-10T10:51:19;7.95;;;3.03;;
53903;SDS011;39812;52.430;16.936;2023-06-10T10:54:04;7.53;;;3.45;;
53903;SDS011;39812;52.430;16.936;2023-06-10T10:56:37;7.57;;;2.90;;
53903;SDS011;39812;52.430;16.936;2023-06-10T10:59:06;6.65;;;2.92;;
53903;SDS011;39812;52.430;16.936;2023-06-10T11:01:42;5.70;;;3.50;;
53903;SDS011;39812;52.430;16.936;2023-06-10T11:04:11;6.57;;;2.90;;
53903;SDS011;39812;52.430;16.936;2023-06-10T11:06:37;5.43;;;3.10;;
53903;SDS011;39812;52.430;16.936;2023-06-10T11:11:52;5.40;;;3.00;;
53903;SDS011;39812;52.430;16.936;2023-06-10T11:14:29;5.15;;;2.63;;
53903;SDS011;39812;52.430;16.936;2023-06-10T11:16:58;6.20;;;3.35;;
53903;SDS011;39812;52.430;16.936;2023-06-10T11:19:38;6.75;;;2.90;;
53903;SDS011;39812;52.430;16.936;2023-06-10T11:22:06;4.88;;;2.92;;
53903;SDS011;39812;52.430;16.936;2023-06-10T11:24:34;4.90;;;3.05;;
53903;SDS011;39812;52.430;16.936;2023-06-10T11:27:19;4.50;;;2.90;;
53903;SDS011;39812;52.430;16.936;2023-06-10T11:29:58;4.60;;;3.20;;
53903;SDS011;39812;52.430;16.936;2023-06-10T11:32:42;4.28;;;2.78;;
53903;SDS011;39812;52.430;16.936;2023-06-10T11:35:08;3.83;;;2.60;;
53903;SDS011;39812;52.430;16.936;2023-06-10T11:37:34;4.35;;;2.80;;
53903;SDS011;39812;52.430;16.936;2023-06-10T11:40:00;7.00;;;3.10;;
53903;SDS011;39812;52.430;16.936;2023-06-10T11:42:27;5.30;;;2.92;;
53903;SDS011;39812;52.430;16.936;2023-06-10T11:44:53;5.45;;;3.10;;
53903;SDS011;39812;52.430;16.936;2023-06-10T11:47:19;5.07;;;2.67;;
53903;SDS011;39812;52.430;16.936;2023-06-10T11:49:46;8.45;;;3.17;;
53903;SDS011;39812;52.430;16.936;2023-06-10T11:52:39;6.00;;;3.00;;
53903;SDS011;39812;52.430;16.936;2023-06-10T11:55:06;5.20;;;3.15;;
53903;SDS011;39812;52.430;16.936;2023-06-10T11:57:35;5.40;;;3.17;;
53903;SDS011;39812;52.430;16.936;2023-06-10T12:00:05;8.65;;;2.80;;
53903;SDS011;39812;52.430;16.936;2023-06-10T12:02:31;4.47;;;2.55;;
53903;SDS011;39812;52.430;16.936;2023-06-10T12:05:09;3.75;;;2.67;;
53903;SDS011;39812;52.430;16.936;2023-06-10T12:07:37;4.60;;;2.80;;
53903;SDS011;39812;52.430;16.936;2023-06-10T12:10:03;5.50;;;2.65;;
53903;SDS011;39812;52.430;16.936;2023-06-10T12:12:29;8.02;;;3.00;;
53903;SDS011;39812;52.430;16.936;2023-06-10T12:20:02;4.18;;;2.47;;
53903;SDS011;39812;52.430;16.936;2023-06-10T12:23:10;6.32;;;3.03;;
53903;SDS011;39812;52.430;16.936;2023-06-10T12:25:25;4.40;;;2.58;;
53903;SDS011;39812;52.430;16.936;2023-06-10T12:27:52;3.38;;;2.30;;
53903;SDS011;39812;52.430;16.936;2023-06-10T12:30:19;6.43;;;2.70;;
53903;SDS011;39812;52.430;16.936;2023-06-10T12:32:46;5.28;;;2.70;;
53903;SDS011;39812;52.430;16.936;2023-06-10T12:35:13;3.47;;;2.55;;
53903;SDS011;39812;52.430;16.936;2023-06-10T12:37:42;3.97;;;2.63;;
53903;SDS011;39812;52.430;16.936;2023-06-10T12:40:25;7.72;;;2.75;;
53903;SDS011;39812;52.430;16.936;2023-06-10T12:43:01;4.60;;;2.53;;
53903;SDS011;39812;52.430;16.936;2023-06-10T12:45:27;5.22;;;2.53;;
53903;SDS011;39812;52.430;16.936;2023-06-10T12:50:36;4.53;;;2.38;;
53903;SDS011;39812;52.430;16.936;2023-06-10T12:53:06;4.47;;;2.60;;
53903;SDS011;39812;52.430;16.936;2023-06-10T12:55:32;3.65;;;2.15;;
53903;SDS011;39812;52.430;16.936;2023-06-10T12:57:58;3.83;;;2.50;;
53903;SDS011;39812;52.430;16.936;2023-06-10T13:00:25;4.30;;;2.22;;
53903;SDS011;39812;52.430;16.936;2023-06-10T13:02:53;9.98;;;2.53;;
53903;SDS011;39812;52.430;16.936;2023-06-10T13:05:19;10.38;;;2.95;;
53903;SDS011;39812;52.430;16.936;2023-06-10T13:07:45;4.47;;;2.25;;
53903;SDS011;39812;52.430;16.936;2023-06-10T13:10:15;4.30;;;2.40;;
53903;SDS011;39812;52.430;16.936;2023-06-10T13:12:44;4.35;;;2.80;;
53903;SDS011;39812;52.430;16.936;2023-06-10T13:15:11;7.00;;;2.92;;
53903;SDS011;39812;52.430;16.936;2023-06-10T13:17:37;4.10;;;2.58;;
53903;SDS011;39812;52.430;16.936;2023-06-10T13:20:04;4.22;;;2.25;;
53903;SDS011;39812;52.430;16.936;2023-06-10T13:22:31;4.68;;;2.30;;
53903;SDS011;39812;52.430;16.936;2023-06-10T13:24:58;4.00;;;2.65;;
53903;SDS011;39812;52.430;16.936;2023-06-10T13:27:24;2.92;;;2.20;;
53903;SDS011;39812;52.430;16.936;2023-06-10T13:29:50;5.35;;;2.67;;
53903;SDS011;39812;52.430;16.936;2023-06-10T13:32:15;4.97;;;2.60;;
53903;SDS011;39812;52.430;16.936;2023-06-10T13:34:41;4.45;;;2.70;;
53903;SDS011;39812;52.430;16.936;2023-06-10T13:37:07;4.28;;;2.30;;
53903;SDS011;39812;52.430;16.936;2023-06-10T13:39:32;4.90;;;2.30;;
53903;SDS011;39812;52.430;16.936;2023-06-10T13:41:58;4.00;;;2.45;;
53903;SDS011;39812;52.430;16.936;2023-06-10T13:44:24;6.90;;;3.10;;
53903;SDS011;39812;52.430;16.936;2023-06-10T13:46:49;4.25;;;2.38;;
53903;SDS011;39812;52.430;16.936;2023-06-10T13:49:15;3.28;;;2.42;;
53903;SDS011;39812;52.430;16.936;2023-06-10T13:51:41;7.13;;;2.67;;
53903;SDS011;39812;52.430;16.936;2023-06-10T13:54:07;3.03;;;2.30;;
53903;SDS011;39812;52.430;16.936;2023-06-10T13:56:32;4.18;;;2.10;;
53903;SDS011;39812;52.430;16.936;2023-06-10T13:59:02;2.40;;;1.83;;
53903;SDS011;39812;52.430;16.936;2023-06-10T14:01:28;4.85;;;2.20;;
53903;SDS011;39812;52.430;16.936;2023-06-10T14:03:54;5.20;;;2.22;;
53903;SDS011;39812;52.430;16.936;2023-06-10T14:06:19;5.03;;;2.67;;
53903;SDS011;39812;52.430;16.936;2023-06-10T14:08:46;10.85;;;2.50;;
53903;SDS011;39812;52.430;16.936;2023-06-10T14:11:11;6.35;;;2.38;;
53903;SDS011;39812;52.430;16.936;2023-06-10T14:13:37;5.63;;;2.47;;
53903;SDS011;39812;52.430;16.936;2023-06-10T14:16:05;6.32;;;2.40;;
53903;SDS011;39812;52.430;16.936;2023-06-10T14:18:31;5.20;;;2.40;;
53903;SDS011;39812;52.430;16.936;2023-06-10T14:20:57;4.13;;;2.13;;
53903;SDS011;39812;52.430;16.936;2023-06-10T14:23:22;3.50;;;2.22;;
53903;SDS011;39812;52.430;16.936;2023-06-10T14:25:50;4.18;;;2.10;;
53903;SDS011;39812;52.430;16.936;2023-06-10T14:28:16;2.80;;;2.10;;
53903;SDS011;39812;52.430;16.936;2023-06-10T14:30:41;6.38;;;2.30;;
53903;SDS011;39812;52.430;16.936;2023-06-10T14:33:07;3.45;;;2.30;;
53903;SDS011;39812;52.430;16.936;2023-06-10T14:35:32;4.22;;;1.75;;
53903;SDS011;39812;52.430;16.936;2023-06-10T14:37:58;3.55;;;2.03;;
53903;SDS011;39812;52.430;16.936;2023-06-10T14:40:23;3.17;;;1.80;;
53903;SDS011;39812;52.430;16.936;2023-06-10T14:42:51;3.67;;;1.90;;
53903;SDS011;39812;52.430;16.936;2023-06-10T14:45:16;4.13;;;2.30;;
53903;SDS011;39812;52.430;16.936;2023-06-10T14:47:42;5.15;;;2.45;;
53903;SDS011;39812;52.430;16.936;2023-06-10T14:50:08;4.15;;;2.20;;
53903;SDS011;39812;52.430;16.936;2023-06-10T14:52:34;5.15;;;2.33;;
53903;SDS011;39812;52.430;16.936;2023-06-10T14:54:59;4.50;;;2.30;;
53903;SDS011;39812;52.430;16.936;2023-06-10T14:57:27;4.10;;;2.20;;
53903;SDS011;39812;52.430;16.936;2023-06-10T14:59:52;4.30;;;2.25;;
53903;SDS011;39812;52.430;16.936;2023-06-10T15:02:18;5.72;;;1.95;;